createdAt,value
2019-04-25T00:00:31.468Z,10.10
2019-04-25T00:03:02.377Z,10.10
2019-04-25T00:05:34.286Z,10.10
2019-04-25T00:08:04.882Z,10.00
2019-04-25T00:10:35.251Z,10.10
2019-04-25T00:13:05.770Z,10.00
2019-04-25T00:15:36.217Z,9.90
2019-04-25T00:18:06.878Z,9.90
2019-04-25T00:20:42.643Z,9.90
2019-04-25T00:23:17.187Z,9.80
2019-04-25T00:26:05.538Z,9.80
2019-04-25T00:28:35.840Z,9.80
2019-04-25T00:31:07.845Z,9.80
2019-04-25T00:33:38.306Z,9.80
2019-04-25T00:36:13.620Z,9.80
2019-04-25T00:38:46.257Z,9.90
2019-04-25T00:41:16.084Z,10.00
2019-04-25T00:43:47.436Z,10.10
2019-04-25T00:46:17.758Z,10.20
2019-04-25T00:48:51.484Z,10.30
2019-04-25T00:51:22.406Z,10.30
2019-04-25T00:53:54.719Z,10.50
2019-04-25T00:56:25.107Z,10.50
2019-04-25T00:59:14.037Z,10.60
2019-04-25T01:01:53.999Z,10.60
2019-04-25T01:04:26.556Z,10.80
2019-04-25T01:06:58.596Z,10.80
2019-04-25T01:09:29.345Z,10.80
2019-04-25T01:12:00.039Z,11.00
2019-04-25T01:14:31.699Z,11.00
2019-04-25T01:17:02.399Z,11.10
2019-04-25T01:19:36.003Z,11.20
2019-04-25T01:22:06.389Z,11.20
2019-04-25T01:24:36.681Z,11.20
2019-04-25T01:27:07.255Z,11.20
2019-04-25T01:29:37.672Z,11.20
2019-04-25T01:32:09.908Z,11.20
2019-04-25T01:34:54.901Z,11.10
2019-04-25T01:37:40.897Z,11.10
2019-04-25T01:40:28.727Z,11.10
2019-04-25T01:43:18.019Z,11.00
2019-04-25T01:45:49.657Z,11.00
2019-04-25T01:48:20.111Z,11.00
2019-04-25T01:50:50.692Z,11.00
2019-04-25T01:53:21.147Z,11.00
2019-04-25T01:55:58.126Z,10.90
2019-04-25T01:58:23.713Z,10.90
2019-04-25T02:00:55.880Z,10.90
2019-04-25T02:03:27.265Z,10.90
2019-04-25T02:05:57.714Z,10.90
2019-04-25T02:08:28.143Z,10.90
2019-04-25T02:11:09.966Z,10.90
2019-04-25T02:13:40.541Z,10.80
2019-04-25T02:16:10.991Z,10.70
2019-04-25T02:18:41.467Z,10.70
2019-04-25T02:21:13.609Z,10.70
2019-04-25T02:23:44.251Z,10.70
2019-04-25T02:26:17.895Z,10.60
2019-04-25T02:28:47.046Z,10.60
2019-04-25T02:31:18.360Z,10.60
2019-04-25T02:33:48.980Z,10.70
2019-04-25T02:36:19.461Z,10.70
2019-04-25T02:38:49.919Z,10.60
2019-04-25T02:41:20.266Z,10.70
2019-04-25T02:43:50.700Z,10.50
2019-04-25T02:47:00.329Z,10.50
2019-04-25T02:49:44.589Z,10.60
2019-04-25T02:52:24.460Z,10.60
2019-04-25T02:54:55.980Z,10.60
2019-04-25T02:57:26.348Z,10.60
2019-04-25T02:59:57.420Z,10.70
2019-04-25T03:02:28.773Z,10.60
2019-04-25T03:04:59.621Z,10.50
2019-04-25T03:07:31.203Z,10.50
2019-04-25T03:10:02.016Z,10.40
2019-04-25T03:12:35.895Z,10.30
2019-04-25T03:15:07.950Z,10.30
2019-04-25T03:17:36.755Z,10.30
2019-04-25T03:20:25.378Z,10.20
2019-04-25T03:22:55.847Z,10.20
2019-04-25T03:25:26.126Z,10.20
2019-04-25T03:27:56.574Z,10.10
2019-04-25T03:30:26.971Z,10.10
2019-04-25T03:32:57.375Z,10.00
2019-04-25T03:35:27.851Z,9.90
2019-04-25T03:37:58.379Z,10.10
2019-04-25T03:40:28.858Z,10.00
2019-04-25T03:42:59.373Z,9.90
2019-04-25T03:45:29.899Z,9.80
2019-04-25T03:48:01.146Z,9.80
2019-04-25T03:50:32.311Z,9.70
2019-04-25T03:53:05.421Z,9.60
2019-04-25T03:55:35.989Z,9.60
2019-04-25T03:58:08.787Z,9.60
2019-04-25T04:00:38.419Z,9.60
2019-04-25T04:03:09.242Z,9.60
2019-04-25T04:05:39.592Z,9.60
2019-04-25T04:08:09.942Z,9.50
2019-04-25T04:10:40.238Z,9.50
2019-04-25T04:13:10.878Z,9.50
2019-04-25T04:15:41.243Z,9.40
2019-04-25T04:18:30.694Z,9.40
2019-04-25T04:21:33.264Z,9.40
2019-04-25T04:24:28.556Z,9.40
2019-04-25T04:27:10.788Z,9.40
2019-04-25T04:29:43.116Z,9.50
2019-04-25T04:32:14.809Z,9.90
2019-04-25T04:34:45.740Z,10.50
2019-04-25T04:37:16.300Z,11.00
2019-04-25T04:39:46.790Z,11.50
2019-04-25T04:42:17.922Z,11.80
2019-04-25T04:44:48.433Z,11.90
2019-04-25T04:47:18.819Z,12.20
2019-04-25T04:49:49.195Z,12.80
2019-04-25T04:52:19.492Z,13.20
2019-04-25T04:54:49.879Z,13.70
2019-04-25T04:57:28.860Z,14.20
2019-04-25T04:59:53.580Z,14.70
2019-04-25T05:02:33.359Z,15.10
2019-04-25T05:05:26.135Z,15.50
2019-04-25T05:08:03.902Z,15.70
2019-04-25T05:10:34.502Z,16.00
2019-04-25T05:13:07.135Z,16.30
2019-04-25T05:15:37.506Z,16.60
2019-04-25T05:18:08.042Z,17.00
2019-04-25T05:20:38.531Z,17.00
2019-04-25T05:23:09.115Z,17.40
2019-04-25T07:28:05.857Z,25.60
2019-04-25T07:30:52.716Z,25.10
2019-04-25T07:33:32.976Z,25.50
2019-04-25T07:36:04.284Z,25.70
2019-04-25T07:38:35.038Z,25.70
2019-04-25T07:41:05.467Z,25.50
2019-04-25T07:43:36.333Z,25.60
2019-04-25T07:46:06.755Z,25.60
2019-04-25T07:48:38.111Z,25.50
2019-04-25T07:51:08.595Z,25.50
2019-04-25T07:53:38.987Z,25.10
2019-04-25T07:56:09.927Z,24.90
2019-04-25T07:58:49.330Z,24.70
2019-04-25T08:01:13.976Z,24.90
2019-04-25T08:03:44.758Z,25.30
2019-04-25T08:06:15.231Z,25.40
2019-04-25T08:08:45.698Z,25.40
2019-04-25T08:11:16.138Z,25.20
2019-04-25T08:13:53.360Z,25.30
2019-04-25T08:16:25.258Z,25.30
2019-04-25T08:18:55.841Z,25.50
2019-04-25T08:21:26.202Z,25.20
2019-04-25T08:23:56.656Z,25.00
2019-04-25T08:26:27.014Z,25.00
2019-04-25T08:28:57.853Z,25.30
2019-04-25T08:31:28.423Z,25.50
2019-04-25T08:33:58.811Z,25.50
2019-04-25T08:36:29.254Z,25.60
2019-04-25T08:38:59.765Z,25.70
2019-04-25T08:41:30.975Z,25.70
2019-04-25T08:44:01.475Z,25.50
2019-04-25T08:46:33.875Z,25.70
2019-04-25T08:49:20.585Z,25.60
2019-04-25T08:51:51.837Z,25.50
2019-04-25T08:54:41.111Z,25.50
2019-04-25T08:57:16.427Z,25.80
2019-04-25T08:59:59.087Z,25.70
2019-04-25T09:02:44.712Z,25.50
2019-04-25T09:05:29.758Z,25.40
2019-04-25T09:08:00.091Z,25.10
2019-04-25T09:10:30.546Z,25.10
2019-04-25T09:13:00.935Z,25.10
2019-04-25T09:15:33.008Z,24.90
2019-04-25T09:18:04.062Z,24.90
2019-04-25T09:20:38.014Z,24.80
2019-04-25T09:23:06.615Z,24.60
2019-04-25T09:25:36.946Z,24.70
2019-04-25T09:28:07.583Z,24.70
2019-04-25T09:30:38.402Z,24.80
2019-04-25T09:33:08.847Z,24.70
2019-04-25T09:35:39.583Z,24.60
2019-04-25T09:38:10.102Z,24.40
2019-04-25T09:40:40.609Z,24.50
2019-04-25T09:43:10.963Z,24.30
2019-04-25T09:46:03.452Z,24.40
2019-04-25T09:48:45.571Z,24.30
2019-04-25T09:51:23.580Z,24.30
2019-04-25T09:54:03.516Z,24.20
2019-04-25T09:56:41.101Z,24.20
2019-04-25T09:59:26.762Z,24.10
2019-04-25T10:01:50.871Z,23.90
2019-04-25T10:04:22.986Z,23.90
2019-04-25T10:06:53.610Z,23.70
2019-04-25T10:09:24.147Z,23.70
2019-04-25T10:11:54.854Z,23.70
2019-04-25T10:14:55.674Z,23.70
2019-04-25T10:17:26.027Z,23.50
2019-04-25T10:19:56.507Z,23.40
2019-04-25T10:22:26.887Z,23.40
2019-04-25T10:25:00.564Z,23.40
2019-04-25T10:27:29.446Z,23.30
2019-04-25T10:29:59.790Z,23.30
2019-04-25T10:32:30.206Z,23.40
2019-04-25T10:35:00.547Z,23.40
2019-04-25T10:37:31.027Z,23.50
2019-04-25T10:40:04.310Z,23.50
2019-04-25T10:42:34.983Z,23.50
2019-04-25T10:45:05.890Z,23.40
2019-04-25T10:47:36.359Z,23.30
2019-04-25T10:50:06.998Z,23.40
2019-04-25T10:52:37.511Z,23.40
2019-04-25T10:55:08.067Z,23.40
2019-04-25T10:57:38.668Z,23.50
2019-04-25T11:00:16.988Z,23.60
2019-04-25T11:02:47.497Z,23.70
2019-04-25T11:05:18.011Z,23.80
2019-04-25T11:07:48.678Z,23.80
2019-04-25T11:10:19.235Z,23.60
2019-04-25T11:12:49.906Z,23.60
2019-04-25T11:15:20.917Z,23.60
2019-04-25T11:17:54.121Z,23.50
2019-04-25T11:20:29.027Z,23.50
2019-04-25T11:22:59.514Z,23.60
2019-04-25T11:25:29.945Z,23.60
2019-04-25T11:28:00.291Z,23.80
2019-04-25T11:30:32.002Z,23.70
2019-04-25T11:33:03.659Z,23.80
2019-04-25T11:35:34.407Z,23.80
2019-04-25T11:38:08.125Z,23.90
2019-04-25T11:40:47.727Z,23.90
2019-04-25T11:43:15.799Z,23.90
2019-04-25T11:45:47.061Z,23.90
2019-04-25T11:48:17.733Z,24.10
2019-04-25T11:50:51.010Z,24.30
2019-04-25T11:53:20.238Z,24.50
2019-04-25T11:55:51.432Z,24.70
2019-04-25T11:58:23.464Z,24.70
2019-04-25T12:00:57.751Z,24.70
2019-04-25T12:03:26.074Z,24.80
2019-04-25T12:05:56.502Z,24.80
2019-04-25T12:08:26.974Z,24.80
2019-04-25T12:10:57.426Z,24.80
2019-04-25T12:13:27.732Z,24.80
2019-04-25T12:15:58.553Z,24.80
2019-04-25T12:18:29.011Z,24.60
2019-04-25T12:20:59.503Z,24.60
2019-04-25T12:23:29.855Z,24.50
2019-04-25T12:26:00.340Z,24.50
2019-04-25T12:28:30.686Z,24.50
2019-04-25T12:31:01.039Z,24.60
2019-04-25T12:33:31.482Z,24.50
2019-04-25T12:36:01.838Z,24.50
2019-04-25T12:38:33.487Z,24.50
2019-04-25T12:41:04.187Z,24.30
2019-04-25T12:43:36.255Z,24.30
2019-04-25T12:46:12.798Z,24.30
2019-04-25T12:48:43.266Z,24.30
2019-04-25T12:51:13.635Z,24.30
2019-04-25T12:53:44.115Z,24.30
2019-04-25T12:56:14.558Z,24.20
2019-04-25T12:58:44.862Z,24.30
2019-04-25T13:01:15.839Z,24.40
2019-04-25T13:03:46.183Z,24.40
2019-04-25T13:06:16.535Z,24.30
2019-04-25T13:08:47.299Z,24.20
2019-04-25T13:11:17.787Z,24.20
2019-04-25T13:13:48.247Z,24.20
2019-04-25T13:16:18.622Z,24.20
2019-04-25T13:18:49.083Z,24.30
2019-04-25T13:21:19.671Z,24.30
2019-04-25T13:23:50.054Z,24.20
2019-04-25T13:26:24.677Z,24.20
2019-04-25T13:29:11.891Z,24.10
2019-04-25T13:32:13.443Z,24.00
2019-04-25T13:34:45.763Z,24.00
2019-04-25T13:37:16.573Z,24.00
2019-04-25T13:39:47.019Z,24.00
2019-04-25T13:42:17.498Z,24.00
2019-04-25T13:44:47.891Z,24.10
2019-04-25T13:47:18.654Z,24.20
2019-04-25T13:49:49.003Z,24.20
2019-04-25T13:52:19.294Z,24.20
2019-04-25T13:54:49.779Z,24.20
2019-04-25T13:57:20.745Z,24.10
2019-04-25T13:59:54.017Z,24.10
2019-04-25T14:02:24.688Z,24.10
2019-04-25T14:04:55.199Z,24.10
2019-04-25T14:07:25.655Z,24.10
2019-04-25T14:09:56.098Z,24.10
2019-04-25T14:12:28.111Z,24.10
2019-04-25T14:14:58.722Z,24.10
2019-04-25T14:17:48.152Z,24.10
2019-04-25T14:20:31.280Z,24.00
2019-04-25T14:23:15.159Z,24.00
2019-04-25T14:25:45.676Z,23.90
2019-04-25T14:28:16.091Z,24.00
2019-04-25T14:30:46.403Z,24.00
2019-04-25T14:33:16.880Z,23.90
2019-04-25T14:35:47.271Z,23.90
2019-04-25T14:38:17.540Z,23.80
2019-04-25T14:40:47.886Z,23.80
2019-04-25T14:43:18.170Z,23.70
2019-04-25T14:45:48.536Z,23.70
2019-04-25T14:48:19.050Z,23.70
2019-04-25T14:50:49.644Z,23.70
2019-04-25T14:53:20.248Z,23.70
2019-04-25T14:56:09.794Z,23.70
2019-04-25T14:58:41.562Z,23.70
2019-04-25T15:01:14.155Z,23.60
2019-04-25T15:03:44.745Z,23.60
2019-04-25T15:06:15.179Z,23.50
2019-04-25T15:08:45.867Z,23.50
2019-04-25T15:11:17.297Z,23.50
2019-04-25T15:14:00.113Z,23.50
2019-04-25T15:16:31.180Z,23.50
2019-04-25T15:19:01.690Z,23.40
2019-04-25T15:21:35.985Z,23.30
2019-04-25T15:24:06.604Z,23.20
2019-04-25T15:26:37.177Z,23.10
2019-04-25T15:29:07.765Z,23.00
2019-04-25T15:31:38.477Z,22.90
2019-04-25T15:34:09.131Z,22.90
2019-04-25T15:36:46.844Z,23.00
2019-04-25T15:39:42.399Z,22.90
2019-04-25T15:42:30.557Z,23.00
2019-04-25T15:45:13.746Z,23.00
2019-04-25T15:47:45.516Z,23.00
2019-04-25T15:50:16.270Z,22.90
2019-04-25T15:52:46.885Z,22.90
2019-04-25T15:55:17.989Z,22.90
2019-04-25T15:57:49.893Z,22.80
2019-04-25T16:00:24.835Z,22.80
2019-04-25T16:02:56.099Z,22.70
2019-04-25T16:05:27.686Z,22.70
2019-04-25T16:07:58.178Z,22.60
2019-04-25T16:10:29.798Z,22.50
2019-04-25T16:13:00.830Z,22.40
2019-04-25T16:15:31.347Z,22.30
2019-04-25T16:18:03.971Z,22.10
2019-04-25T16:20:35.736Z,22.00
2019-04-25T16:23:06.406Z,21.80
2019-04-25T16:25:37.332Z,21.70
2019-04-25T16:28:08.215Z,21.60
2019-04-25T16:30:43.752Z,21.50
2019-04-25T16:33:15.779Z,21.40
2019-04-25T16:35:51.242Z,21.30
2019-04-25T16:38:21.718Z,21.20
2019-04-25T16:40:53.954Z,21.00
2019-04-25T16:43:28.593Z,20.90
2019-04-25T16:45:59.939Z,20.80
2019-04-25T16:48:31.216Z,20.70
2019-04-25T16:51:07.261Z,20.70
2019-04-25T16:53:38.019Z,20.60
2019-04-25T16:56:08.978Z,20.60
2019-04-25T16:58:42.998Z,20.70
2019-04-25T17:01:17.024Z,20.60
2019-04-25T17:03:48.177Z,20.50
2019-04-25T17:06:18.698Z,20.40
2019-04-25T17:08:49.320Z,20.40
2019-04-25T17:11:20.298Z,20.40
2019-04-25T17:13:56.708Z,20.40
2019-04-25T17:16:39.459Z,20.40
2019-04-25T17:19:30.466Z,20.40
2019-04-25T17:22:01.492Z,20.30
2019-04-25T17:24:32.468Z,20.10
2019-04-25T17:27:03.193Z,20.10
2019-04-25T17:29:34.587Z,19.90
2019-04-25T17:32:30.733Z,20.00
2019-04-25T17:35:20.202Z,19.80
2019-04-25T17:37:54.136Z,19.70
2019-04-25T17:40:27.768Z,19.70
2019-04-25T17:43:10.194Z,19.60
2019-04-25T17:45:33.358Z,19.60
2019-04-25T17:48:04.291Z,19.70
2019-04-25T17:50:34.977Z,19.70
2019-04-25T17:53:09.560Z,19.60
2019-04-25T17:55:40.244Z,19.50
2019-04-25T17:58:13.601Z,19.40
2019-04-25T18:00:45.406Z,19.30
2019-04-25T18:03:15.868Z,19.20
2019-04-25T18:05:46.490Z,19.20
2019-04-25T18:08:16.938Z,19.10
2019-04-25T18:10:47.234Z,19.10
2019-04-25T18:13:17.839Z,19.20
2019-04-25T18:16:13.217Z,19.10
2019-04-25T18:18:56.048Z,19.10
2019-04-25T18:21:26.518Z,19.00
2019-04-25T18:24:28.250Z,18.80
2019-04-25T18:27:25.275Z,18.70
2019-04-25T18:29:56.344Z,18.60
2019-04-25T18:32:29.598Z,18.50
2019-04-25T18:35:07.146Z,18.50
2019-04-25T18:37:45.915Z,18.50
2019-04-25T18:40:29.280Z,18.60
2019-04-25T18:43:11.038Z,18.60
2019-04-25T18:45:44.840Z,18.50
2019-04-25T18:48:16.367Z,18.50
2019-04-25T18:50:47.245Z,18.60
2019-04-25T18:53:37.929Z,18.50
2019-04-25T18:56:28.283Z,18.60
2019-04-25T18:59:26.268Z,18.70
2019-04-25T19:02:06.839Z,18.60
2019-04-25T19:04:59.747Z,18.50
2019-04-25T19:07:30.722Z,18.50
2019-04-25T19:10:01.755Z,18.40
2019-04-25T19:12:33.930Z,18.40
2019-04-25T19:15:04.559Z,18.40
2019-04-25T19:17:35.306Z,18.40
2019-04-25T19:20:06.148Z,18.40
2019-04-25T19:22:36.974Z,18.40
2019-04-25T19:25:10.095Z,18.30
2019-04-25T19:27:42.028Z,18.20
2019-04-25T19:30:16.881Z,18.20
2019-04-25T19:32:47.441Z,18.10
2019-04-25T19:35:17.797Z,18.10
2019-04-25T19:37:48.551Z,18.20
2019-04-25T19:40:42.265Z,18.20
2019-04-25T19:43:29.798Z,18.30
2019-04-25T19:46:00.111Z,18.20
2019-04-25T19:48:30.569Z,18.20
2019-04-25T19:51:01.431Z,18.50
2019-04-25T19:53:31.921Z,18.50
2019-04-25T19:56:02.655Z,18.50
2019-04-25T19:58:33.162Z,18.40
2019-04-25T20:01:03.752Z,18.20
2019-04-25T20:03:52.206Z,18.10
2019-04-25T20:06:21.154Z,18.10
2019-04-25T20:09:14.528Z,18.00
2019-04-25T20:11:51.486Z,18.00
2019-04-25T20:14:23.010Z,18.10
2019-04-25T20:16:53.840Z,18.20
2019-04-25T20:19:24.284Z,18.40
2019-04-25T20:21:54.979Z,18.50
2019-04-25T20:24:27.351Z,18.50
2019-04-25T20:26:57.903Z,18.40
2019-04-25T20:29:29.908Z,18.40
2019-04-25T20:32:00.780Z,18.30
2019-04-25T20:34:31.437Z,18.30
2019-04-25T20:37:02.199Z,18.40
2019-04-25T20:39:32.986Z,18.40
2019-04-25T20:42:03.525Z,18.40
2019-04-25T20:44:36.422Z,18.30
2019-04-25T20:47:06.600Z,18.30
2019-04-25T20:49:36.955Z,18.20
2019-04-25T20:52:07.531Z,18.20
2019-04-25T20:54:37.944Z,18.20
2019-04-25T20:57:08.431Z,18.20
2019-04-25T20:59:39.002Z,18.20
2019-04-25T21:02:09.616Z,18.30
2019-04-25T21:04:40.594Z,18.20
2019-04-25T21:07:11.268Z,18.10
2019-04-25T21:09:41.890Z,18.00
2019-04-25T21:12:12.254Z,17.90
2019-04-25T21:15:16.685Z,17.80
2019-04-25T21:18:06.142Z,17.80
2019-04-25T21:20:36.488Z,17.70
2019-04-25T21:23:08.148Z,17.70
2019-04-25T21:25:38.497Z,17.70
2019-04-25T21:28:10.703Z,17.70
2019-04-25T21:30:41.030Z,17.70
2019-04-25T21:33:11.527Z,17.60
2019-04-25T21:35:42.204Z,17.50
2019-04-25T21:38:15.393Z,17.40
2019-04-25T21:41:17.163Z,17.40
2019-04-25T21:43:51.717Z,17.40
2019-04-25T21:46:22.421Z,17.40
2019-04-25T21:48:53.508Z,17.40
2019-04-25T21:51:33.035Z,17.40
2019-04-25T21:54:04.168Z,17.40
2019-04-25T21:56:34.963Z,17.30
2019-04-25T21:59:05.544Z,17.20
2019-04-25T22:01:45.128Z,17.20
2019-04-25T22:04:15.624Z,17.20
2019-04-25T22:06:48.972Z,17.30
2019-04-25T22:09:21.611Z,17.30
2019-04-25T22:11:52.322Z,17.30
2019-04-25T22:14:22.835Z,17.30
2019-04-25T22:16:54.013Z,17.40
2019-04-25T22:19:27.198Z,17.30
2019-04-25T22:21:58.722Z,17.20
2019-04-25T22:24:29.363Z,17.20
2019-04-25T22:27:03.240Z,17.20
2019-04-25T22:29:36.067Z,17.20
2019-04-25T22:32:19.964Z,17.20
2019-04-25T22:35:08.345Z,17.10
2019-04-25T22:37:38.683Z,17.00
2019-04-25T22:40:09.385Z,17.10
2019-04-25T22:42:39.844Z,17.20
2019-04-25T22:45:10.349Z,17.20
2019-04-25T22:47:40.747Z,17.20
2019-04-25T22:50:11.250Z,17.20
2019-04-25T22:52:42.030Z,17.20
2019-04-25T22:55:12.581Z,17.40
2019-04-25T22:57:43.146Z,17.50
2019-04-25T23:00:22.494Z,17.50
2019-04-25T23:02:58.778Z,17.50
2019-04-25T23:05:35.674Z,17.40
2019-04-25T23:08:06.342Z,17.50
2019-04-25T23:10:36.711Z,17.60
2019-04-25T23:13:07.093Z,17.70
2019-04-25T23:15:37.554Z,17.70
2019-04-25T23:18:09.269Z,17.60
2019-04-25T23:20:39.776Z,17.50
2019-04-25T23:23:10.483Z,17.40
2019-04-25T23:25:58.300Z,17.30
2019-04-25T23:28:38.095Z,17.50
2019-04-25T23:31:14.839Z,17.50
2019-04-25T23:33:45.363Z,17.50
2019-04-25T23:36:16.026Z,17.50
2019-04-25T23:38:46.386Z,17.30
2019-04-25T23:41:17.038Z,17.20
2019-04-25T23:43:47.454Z,17.10
2019-04-25T23:46:17.801Z,17.00
2019-04-25T23:48:48.167Z,16.90
2019-04-25T23:51:18.643Z,16.80
2019-04-25T23:53:49.299Z,16.90
2019-04-25T23:56:19.658Z,16.80
2019-04-25T23:58:50.306Z,16.90
